createdAt,value
2023-03-24T00:01:11.953Z,10.10
2023-03-24T00:06:13.779Z,10.13
2023-03-24T00:11:18.405Z,8.73
2023-03-24T00:16:21.576Z,9.70
2023-03-24T00:21:24.594Z,9.75
2023-03-24T00:26:26.216Z,10.02
2023-03-24T00:31:27.813Z,10.57
2023-03-24T00:36:29.447Z,10.63
2023-03-24T00:41:31.605Z,12.18
2023-03-24T00:46:35.186Z,11.85
2023-03-24T00:51:37.572Z,11.93
2023-03-24T00:56:40.458Z,11.23
2023-03-24T01:01:43.371Z,12.40
2023-03-24T01:06:47.079Z,12.30
2023-03-24T01:11:48.496Z,12.07
2023-03-24T01:16:49.885Z,11.85
2023-03-24T01:21:54.254Z,11.30
2023-03-24T01:26:56.017Z,9.93
2023-03-24T01:31:57.468Z,10.48
2023-03-24T01:36:59.376Z,10.00
2023-03-24T01:42:00.786Z,8.43
2023-03-24T01:47:03.078Z,9.38
2023-03-24T01:52:07.182Z,8.70
2023-03-24T01:57:13.979Z,9.45
2023-03-24T02:02:16.003Z,8.02
2023-03-24T02:07:36.068Z,8.50
2023-03-24T02:12:37.458Z,7.38
2023-03-24T02:17:45.004Z,6.68
2023-03-24T02:22:46.647Z,8.35
2023-03-24T02:27:48.022Z,6.60
2023-03-24T02:32:58.548Z,7.15
2023-03-24T02:38:09.445Z,6.10
2023-03-24T02:43:20.192Z,6.75
2023-03-24T02:48:27.670Z,6.90
2023-03-24T02:53:47.719Z,6.88
2023-03-24T02:58:52.139Z,6.50
2023-03-24T03:03:55.561Z,6.78
2023-03-24T03:08:58.865Z,6.57
2023-03-24T03:14:02.333Z,7.38
2023-03-24T03:19:09.845Z,6.25
2023-03-24T03:24:16.477Z,6.10
2023-03-24T03:29:21.954Z,5.95
2023-03-24T03:34:29.209Z,6.72
2023-03-24T03:39:32.856Z,6.82
2023-03-24T03:44:34.300Z,7.80
2023-03-24T03:49:36.759Z,7.45
2023-03-24T03:54:38.602Z,7.65
2023-03-24T03:59:40.356Z,6.75
2023-03-24T04:04:48.662Z,7.40
2023-03-24T04:10:15.836Z,6.85
2023-03-24T04:15:33.618Z,6.65
2023-03-24T04:20:46.771Z,6.53
2023-03-24T04:26:01.502Z,6.45
2023-03-24T04:31:14.334Z,6.00
2023-03-24T04:36:22.468Z,6.13
2023-03-24T04:41:26.030Z,5.93
2023-03-24T04:46:27.603Z,7.00
2023-03-24T04:51:29.274Z,7.25
2023-03-24T04:56:34.822Z,9.50
2023-03-24T05:01:37.611Z,7.22
2023-03-24T05:06:39.157Z,8.13
2023-03-24T05:11:40.560Z,8.20
2023-03-24T05:16:42.353Z,8.73
2023-03-24T05:21:43.770Z,8.13
2023-03-24T05:26:45.258Z,7.80
2023-03-24T05:31:46.748Z,8.13
2023-03-24T05:36:48.117Z,8.50
2023-03-24T05:41:49.498Z,8.50
2023-03-24T05:46:50.850Z,7.97
2023-03-24T05:51:52.211Z,8.18
2023-03-24T05:56:53.621Z,7.88
2023-03-24T06:01:58.476Z,7.95
2023-03-24T06:07:00.285Z,8.27
2023-03-24T06:12:05.338Z,7.97
2023-03-24T06:17:14.562Z,8.25
2023-03-24T06:22:16.773Z,9.07
2023-03-24T06:27:21.901Z,9.23
2023-03-24T06:32:23.249Z,9.25
2023-03-24T06:37:24.634Z,4.53
2023-03-24T06:42:27.142Z,2.03
2023-03-24T06:47:28.563Z,3.08
2023-03-24T06:52:29.957Z,2.53
2023-03-24T06:57:31.574Z,2.55
2023-03-24T07:02:35.604Z,2.47
2023-03-24T07:08:16.774Z,3.33
2023-03-24T07:12:59.664Z,2.13
2023-03-24T07:18:01.522Z,3.42
2023-03-24T07:23:03.026Z,2.75
2023-03-24T07:28:04.669Z,3.17
2023-03-24T07:33:07.892Z,2.45
2023-03-24T07:38:10.023Z,2.42
2023-03-24T07:43:11.357Z,3.35
2023-03-24T07:48:13.052Z,2.45
2023-03-24T07:53:18.480Z,4.35
2023-03-24T07:58:20.171Z,3.13
2023-03-24T08:03:28.414Z,3.15
2023-03-24T08:08:31.070Z,3.22
2023-03-24T08:13:32.606Z,3.28
2023-03-24T08:18:35.015Z,3.45
2023-03-24T08:23:37.085Z,3.17
2023-03-24T08:28:38.615Z,2.88
2023-03-24T08:33:40.541Z,2.80
2023-03-24T08:38:42.151Z,2.65
2023-03-24T08:43:43.520Z,2.72
2023-03-24T08:48:44.978Z,2.67
2023-03-24T08:53:46.404Z,2.83
2023-03-24T08:58:53.615Z,2.45
2023-03-24T09:03:55.072Z,4.30
2023-03-24T09:08:56.430Z,3.42
2023-03-24T09:13:57.831Z,2.92
2023-03-24T09:18:59.298Z,2.28
2023-03-24T09:24:00.930Z,2.60
2023-03-24T09:29:02.790Z,2.60
2023-03-24T09:34:04.360Z,2.70
2023-03-24T09:39:06.223Z,3.58
2023-03-24T09:44:27.710Z,2.85
2023-03-24T09:49:31.201Z,6.13
2023-03-24T09:54:32.562Z,3.25
2023-03-24T09:59:40.968Z,3.45
2023-03-24T10:04:42.367Z,2.90
2023-03-24T10:09:46.301Z,2.28
2023-03-24T10:15:15.081Z,2.33
2023-03-24T10:20:27.040Z,2.35
2023-03-24T10:25:32.453Z,2.80
2023-03-24T10:30:37.073Z,2.75
2023-03-24T10:35:41.687Z,2.65
2023-03-24T10:40:43.814Z,2.90
2023-03-24T10:45:48.342Z,2.00
2023-03-24T10:50:52.114Z,1.77
2023-03-24T10:55:53.433Z,3.20
2023-03-24T11:00:55.739Z,3.15
2023-03-24T11:05:58.270Z,2.65
2023-03-24T11:10:59.862Z,2.95
2023-03-24T11:16:12.093Z,2.53
2023-03-24T11:21:13.529Z,3.13
2023-03-24T11:26:16.522Z,2.95
2023-03-24T11:31:47.484Z,2.72
2023-03-24T11:36:50.837Z,3.17
2023-03-24T11:42:06.002Z,2.83
2023-03-24T11:47:24.079Z,2.70
2023-03-24T11:52:29.107Z,3.10
2023-03-24T11:57:42.237Z,3.05
2023-03-24T12:03:02.321Z,2.37
2023-03-24T12:08:17.781Z,2.67
2023-03-24T12:13:29.997Z,2.80
2023-03-24T12:18:48.926Z,2.55
2023-03-24T12:24:09.146Z,2.80
2023-03-24T12:29:16.429Z,3.53
2023-03-24T12:34:17.761Z,2.53
2023-03-24T12:39:26.574Z,3.22
2023-03-24T12:44:36.211Z,3.50
2023-03-24T12:49:56.519Z,2.97
2023-03-24T12:55:04.494Z,3.13
2023-03-24T13:00:26.218Z,2.72
2023-03-24T13:05:31.710Z,2.97
2023-03-24T13:10:40.293Z,3.38
2023-03-24T13:15:45.244Z,3.15
2023-03-24T13:20:49.025Z,2.63
2023-03-24T13:25:50.526Z,3.58
2023-03-24T13:30:52.193Z,3.50
2023-03-24T13:36:02.456Z,2.70
2023-03-24T13:41:05.671Z,2.95
2023-03-24T13:46:13.367Z,2.35
2023-03-24T13:51:19.669Z,2.63
2023-03-24T13:56:31.015Z,3.50
2023-03-24T14:01:47.774Z,3.83
2023-03-24T14:06:50.603Z,3.25
2023-03-24T14:11:54.926Z,3.00
2023-03-24T14:21:59.018Z,3.47
2023-03-24T14:27:00.432Z,3.47
2023-03-24T14:32:17.300Z,4.90
2023-03-24T14:37:22.164Z,6.60
2023-03-24T14:42:26.244Z,2.92
2023-03-24T14:47:30.770Z,8.48
2023-03-24T14:52:33.959Z,3.97
2023-03-24T14:57:38.960Z,2.05
2023-03-24T15:02:42.046Z,1.83
2023-03-24T15:07:44.335Z,2.92
2023-03-24T15:12:47.194Z,2.20
2023-03-24T15:17:49.223Z,2.10
2023-03-24T15:22:55.227Z,2.20
2023-03-24T15:27:57.720Z,3.00
2023-03-24T15:32:59.427Z,2.70
2023-03-24T15:38:01.138Z,2.28
2023-03-24T15:43:03.891Z,3.47
2023-03-24T15:48:07.508Z,2.05
2023-03-24T15:53:28.642Z,3.88
2023-03-24T15:58:33.649Z,2.13
2023-03-24T16:03:35.175Z,3.78
2023-03-24T16:08:40.830Z,3.25
2023-03-24T16:13:43.480Z,3.47
2023-03-24T16:18:46.173Z,4.45
2023-03-24T16:23:48.265Z,4.30
2023-03-24T16:28:50.459Z,3.28
2023-03-24T16:33:52.117Z,4.03
2023-03-24T16:38:54.654Z,3.90
2023-03-24T16:43:57.105Z,5.43
2023-03-24T16:49:00.610Z,3.88
2023-03-24T16:54:02.107Z,5.87
2023-03-24T16:59:04.145Z,6.22
2023-03-24T17:04:09.730Z,4.63
2023-03-24T17:09:12.629Z,3.40
2023-03-24T17:14:14.334Z,3.72
2023-03-24T17:19:17.177Z,4.18
2023-03-24T17:24:19.150Z,4.38
2023-03-24T17:29:21.228Z,3.20
2023-03-24T17:34:22.660Z,2.92
2023-03-24T17:39:24.066Z,4.10
2023-03-24T17:44:25.441Z,2.50
2023-03-24T17:49:26.859Z,2.53
2023-03-24T17:54:28.278Z,4.20
2023-03-24T17:59:29.695Z,5.60
2023-03-24T18:04:31.715Z,3.53
2023-03-24T18:09:33.178Z,3.15
2023-03-24T18:14:34.653Z,3.30
2023-03-24T18:19:36.358Z,3.35
2023-03-24T18:24:37.809Z,3.42
2023-03-24T18:29:39.359Z,2.92
2023-03-24T18:34:44.754Z,3.38
2023-03-24T18:39:46.339Z,2.90
2023-03-24T18:44:47.696Z,3.92
2023-03-24T18:49:49.070Z,3.85
2023-03-24T18:54:50.606Z,3.78
2023-03-24T18:59:53.136Z,2.60
2023-03-24T19:04:54.511Z,3.63
2023-03-24T19:09:56.489Z,2.30
2023-03-24T19:14:57.878Z,3.10
2023-03-24T19:20:00.935Z,3.53
2023-03-24T19:25:03.517Z,3.00
2023-03-24T19:30:06.252Z,3.60
2023-03-24T19:35:08.135Z,5.13
2023-03-24T19:40:11.814Z,3.55
2023-03-24T19:45:15.394Z,3.03
2023-03-24T19:50:17.463Z,3.83
2023-03-24T19:55:18.971Z,3.88
2023-03-24T20:00:20.435Z,3.45
2023-03-24T20:05:21.783Z,3.25
2023-03-24T20:10:23.219Z,2.67
2023-03-24T20:15:24.550Z,3.47
2023-03-24T20:20:25.891Z,2.70
2023-03-24T20:25:27.226Z,5.13
2023-03-24T20:30:30.428Z,5.97
2023-03-24T20:35:32.981Z,4.50
2023-03-24T20:40:35.622Z,3.90
2023-03-24T20:45:37.012Z,3.17
2023-03-24T20:50:38.474Z,3.40
2023-03-24T20:55:39.839Z,3.83
2023-03-24T21:00:46.182Z,3.95
2023-03-24T21:05:47.658Z,4.35
2023-03-24T21:10:49.039Z,4.18
2023-03-24T21:15:50.815Z,4.80
2023-03-24T21:20:55.157Z,4.10
2023-03-24T21:25:56.480Z,3.00
2023-03-24T21:30:58.601Z,2.50
2023-03-24T21:36:00.348Z,2.70
2023-03-24T21:41:02.068Z,2.55
2023-03-24T21:46:03.945Z,3.60
2023-03-24T21:51:05.518Z,2.83
2023-03-24T21:56:07.072Z,2.28
2023-03-24T22:01:09.050Z,2.55
2023-03-24T22:06:10.713Z,2.85
2023-03-24T22:11:15.249Z,3.95
2023-03-24T22:16:16.597Z,3.97
2023-03-24T22:21:17.926Z,3.90
2023-03-24T22:26:19.486Z,3.50
2023-03-24T22:31:23.007Z,2.78
2023-03-24T22:36:24.360Z,3.08
2023-03-24T22:41:25.743Z,2.83
2023-03-24T22:46:27.131Z,2.67
2023-03-24T22:51:30.366Z,3.10
2023-03-24T22:56:31.696Z,3.15
2023-03-24T23:01:33.024Z,2.45
2023-03-24T23:06:34.749Z,3.20
2023-03-24T23:11:36.430Z,2.90
2023-03-24T23:16:38.487Z,2.38
2023-03-24T23:21:39.849Z,2.65
2023-03-24T23:26:41.150Z,2.30
2023-03-24T23:31:42.593Z,1.90
2023-03-24T23:36:44.718Z,2.60
2023-03-24T23:41:46.394Z,2.60
2023-03-24T23:46:47.798Z,2.45
2023-03-24T23:51:49.164Z,1.92
2023-03-24T23:56:51.372Z,2.22
